createdAt,value
2018-11-04T00:01:36.541Z,25.30
2018-11-04T00:04:03.873Z,33.07
2018-11-04T00:06:31.171Z,32.23
2018-11-04T00:08:58.541Z,29.20
2018-11-04T00:11:25.804Z,31.87
2018-11-04T00:13:53.076Z,26.30
2018-11-04T00:16:20.344Z,29.23
2018-11-04T00:18:47.701Z,27.50
2018-11-04T00:21:14.904Z,29.93
2018-11-04T00:23:42.191Z,24.70
2018-11-04T00:26:09.498Z,30.47
2018-11-04T00:28:36.834Z,29.40
2018-11-04T00:31:04.215Z,28.80
2018-11-04T00:33:31.478Z,31.07
2018-11-04T00:35:58.715Z,28.83
2018-11-04T00:38:25.975Z,27.33
2018-11-04T00:40:53.254Z,30.63
2018-11-04T00:43:20.587Z,32.70
2018-11-04T00:45:47.863Z,34.10
2018-11-04T00:48:15.186Z,31.77
2018-11-04T00:50:42.460Z,33.00
2018-11-04T00:53:09.776Z,30.83
2018-11-04T00:55:41.836Z,30.63
2018-11-04T00:58:09.095Z,29.30
2018-11-04T01:00:37.049Z,28.40
2018-11-04T01:03:05.420Z,32.60
2018-11-04T01:05:32.649Z,31.00
2018-11-04T01:07:59.998Z,25.40
2018-11-04T01:10:27.251Z,29.97
2018-11-04T01:12:54.522Z,31.20
2018-11-04T01:15:21.862Z,34.23
2018-11-04T01:17:51.287Z,30.80
2018-11-04T01:23:08.509Z,28.50
2018-11-04T01:25:35.764Z,30.50
2018-11-04T01:28:03.097Z,29.10
2018-11-04T01:30:30.475Z,27.97
2018-11-04T01:32:57.721Z,29.23
2018-11-04T01:35:25.640Z,34.97
2018-11-04T01:37:52.851Z,28.53
2018-11-04T01:40:20.172Z,28.93
2018-11-04T01:42:47.416Z,30.50
2018-11-04T01:45:14.722Z,27.77
2018-11-04T01:47:42.005Z,29.87
2018-11-04T01:50:11.230Z,31.60
2018-11-04T01:52:38.567Z,30.23
2018-11-04T01:55:06.164Z,35.10
2018-11-04T01:57:33.458Z,35.33
2018-11-04T02:00:00.744Z,32.70
2018-11-04T02:02:28.014Z,33.10
2018-11-04T02:04:55.340Z,30.20
2018-11-04T02:07:23.312Z,27.73
2018-11-04T02:09:50.652Z,30.63
2018-11-04T02:12:18.029Z,29.73
2018-11-04T02:14:45.351Z,35.47
2018-11-04T02:17:12.607Z,28.97
2018-11-04T02:19:39.880Z,33.17
2018-11-04T02:22:07.177Z,33.60
2018-11-04T02:24:34.450Z,37.43
2018-11-04T02:27:01.712Z,33.07
2018-11-04T02:29:28.967Z,31.63
2018-11-04T02:31:56.279Z,31.07
2018-11-04T02:34:23.594Z,34.87
2018-11-04T02:36:51.527Z,35.30
2018-11-04T02:39:18.946Z,36.50
2018-11-04T02:41:46.223Z,30.83
2018-11-04T02:44:13.603Z,31.63
2018-11-04T02:46:40.908Z,33.77
2018-11-04T02:49:08.148Z,29.07
2018-11-04T02:51:36.042Z,32.83
2018-11-04T02:54:03.560Z,31.10
2018-11-04T02:56:30.917Z,31.47
2018-11-04T02:58:58.217Z,31.27
2018-11-04T03:01:25.640Z,29.03
2018-11-04T03:03:52.876Z,28.43
2018-11-04T03:06:20.804Z,33.80
2018-11-04T03:08:48.058Z,30.30
2018-11-04T03:11:15.468Z,33.50
2018-11-04T03:13:43.118Z,30.13
2018-11-04T03:16:10.449Z,32.03
2018-11-04T03:18:37.697Z,35.97
2018-11-04T03:21:05.816Z,34.83
2018-11-04T03:23:33.081Z,31.83
2018-11-04T03:26:00.351Z,33.87
2018-11-04T03:28:27.681Z,35.03
2018-11-04T03:30:54.982Z,31.50
2018-11-04T03:33:22.987Z,33.40
2018-11-04T03:35:50.336Z,33.77
2018-11-04T03:38:17.551Z,32.03
2018-11-04T03:40:44.855Z,37.57
2018-11-04T03:43:12.801Z,32.67
2018-11-04T03:45:40.044Z,33.50
2018-11-04T03:48:07.937Z,34.43
2018-11-04T03:50:35.184Z,36.50
2018-11-04T03:53:05.052Z,29.67
2018-11-04T03:55:32.694Z,33.13
2018-11-04T03:58:00.034Z,35.03
2018-11-04T04:00:27.426Z,36.27
2018-11-04T04:02:54.686Z,32.83
2018-11-04T04:05:22.015Z,34.70
2018-11-04T04:07:49.359Z,32.20
2018-11-04T04:10:16.609Z,37.63
2018-11-04T04:12:43.924Z,34.87
2018-11-04T04:15:11.516Z,35.27
2018-11-04T04:17:38.964Z,34.47
2018-11-04T04:20:06.577Z,37.00
2018-11-04T04:22:35.448Z,33.70
2018-11-04T04:25:03.805Z,38.00
2018-11-04T04:27:32.514Z,35.70
2018-11-04T04:29:59.865Z,34.70
2018-11-04T04:32:27.090Z,35.77
2018-11-04T04:34:54.432Z,33.10
2018-11-04T04:37:21.690Z,31.87
2018-11-04T04:39:48.888Z,36.30
2018-11-04T04:42:16.186Z,35.03
2018-11-04T04:44:43.441Z,37.30
2018-11-04T04:47:10.768Z,34.57
2018-11-04T04:49:38.071Z,33.40
2018-11-04T04:52:05.473Z,34.73
2018-11-04T04:54:32.735Z,34.93
2018-11-04T04:57:00.035Z,35.63
2018-11-04T04:59:27.331Z,34.30
2018-11-04T05:01:54.780Z,36.27
2018-11-04T05:04:22.015Z,42.00
2018-11-04T05:06:49.297Z,35.37
2018-11-04T05:09:16.569Z,35.53
2018-11-04T05:11:44.130Z,37.30
2018-11-04T05:14:11.402Z,38.07
2018-11-04T05:16:39.137Z,41.33
2018-11-04T05:19:06.576Z,35.00
2018-11-04T05:21:33.864Z,36.50
2018-11-04T05:24:01.140Z,36.00
2018-11-04T05:26:28.572Z,34.17
2018-11-04T05:28:55.872Z,34.23
2018-11-04T05:31:23.123Z,35.87
2018-11-04T05:33:50.425Z,36.03
2018-11-04T05:36:18.293Z,35.17
2018-11-04T05:38:45.560Z,37.67
2018-11-04T05:41:12.920Z,38.27
2018-11-04T05:43:40.171Z,38.07
2018-11-04T05:46:07.511Z,39.17
2018-11-04T05:48:34.815Z,41.70
2018-11-04T05:51:02.111Z,43.77
2018-11-04T05:53:29.494Z,41.47
2018-11-04T05:55:56.885Z,41.07
2018-11-04T05:58:24.803Z,40.77
2018-11-04T06:00:52.230Z,43.73
2018-11-04T06:03:20.666Z,41.30
2018-11-04T06:05:48.025Z,36.97
2018-11-04T06:08:15.388Z,47.73
2018-11-04T06:10:42.827Z,43.87
2018-11-04T06:13:10.796Z,41.70
2018-11-04T06:15:39.968Z,50.67
2018-11-04T06:18:07.411Z,48.67
2018-11-04T06:20:34.840Z,51.47
2018-11-04T06:25:36.182Z,42.77
2018-11-04T06:28:03.697Z,46.23
2018-11-04T06:30:31.251Z,47.07
2018-11-04T06:33:04.085Z,49.07
2018-11-04T06:35:31.541Z,49.47
2018-11-04T06:37:59.028Z,42.00
2018-11-04T06:40:26.370Z,43.43
2018-11-04T06:42:53.745Z,44.23
2018-11-04T06:45:21.247Z,43.20
2018-11-04T06:47:48.662Z,40.20
2018-11-04T06:50:17.481Z,43.83
2018-11-04T06:52:45.629Z,38.57
2018-11-04T06:55:14.609Z,41.93
2018-11-04T06:57:42.674Z,41.80
2018-11-04T07:00:11.684Z,45.37
2018-11-04T07:02:40.378Z,46.33
2018-11-04T07:05:08.020Z,47.87
2018-11-04T07:07:36.181Z,44.00
2018-11-04T07:10:04.943Z,46.17
2018-11-04T07:12:32.523Z,52.67
2018-11-04T07:15:00.915Z,42.80
2018-11-04T07:17:28.396Z,41.33
2018-11-04T07:19:55.920Z,53.10
2018-11-04T07:22:23.400Z,44.70
2018-11-04T07:24:50.848Z,48.97
2018-11-04T07:27:20.130Z,45.37
2018-11-04T07:29:48.319Z,44.10
2018-11-04T07:32:16.353Z,43.03
2018-11-04T07:34:43.772Z,46.23
2018-11-04T07:37:11.330Z,47.23
2018-11-04T07:39:39.451Z,41.33
2018-11-04T07:42:07.008Z,50.70
2018-11-04T07:44:35.200Z,45.80
2018-11-04T07:47:03.678Z,44.73
2018-11-04T07:49:31.067Z,42.93
2018-11-04T07:51:59.156Z,54.23
2018-11-04T07:54:27.209Z,46.87
2018-11-04T07:56:55.559Z,46.17
2018-11-04T07:59:23.174Z,47.43
2018-11-04T08:01:52.466Z,45.93
2018-11-04T08:04:21.260Z,48.10
2018-11-04T08:06:49.360Z,49.23
2018-11-04T08:09:17.060Z,58.50
2018-11-04T08:11:44.958Z,49.27
2018-11-04T08:14:12.707Z,48.63
2018-11-04T08:16:40.222Z,48.67
2018-11-04T08:19:08.447Z,53.60
2018-11-04T08:21:36.075Z,53.17
2018-11-04T08:24:03.995Z,58.70
2018-11-04T08:26:32.995Z,56.63
2018-11-04T08:29:01.471Z,55.70
2018-11-04T08:31:29.228Z,58.60
2018-11-04T08:33:56.754Z,59.17
2018-11-04T08:36:24.272Z,59.63
2018-11-04T08:38:53.162Z,56.37
2018-11-04T08:41:21.133Z,66.60
2018-11-04T08:43:49.144Z,56.60
2018-11-04T08:46:18.276Z,58.30
2018-11-04T08:48:46.488Z,54.70
2018-11-04T08:51:14.007Z,59.90
2018-11-04T08:53:42.308Z,58.37
2018-11-04T08:56:21.734Z,64.40
2018-11-04T08:58:52.791Z,63.87
2018-11-04T09:01:20.672Z,66.33
2018-11-04T09:03:48.215Z,56.97
2018-11-04T09:06:16.195Z,56.77
2018-11-04T09:08:55.236Z,62.30
2018-11-04T09:11:29.090Z,54.37
2018-11-04T09:13:57.408Z,54.07
2018-11-04T09:16:24.798Z,55.63
2018-11-04T09:18:52.393Z,58.83
2018-11-04T09:21:20.155Z,60.50
2018-11-04T09:23:47.641Z,57.73
2018-11-04T09:26:15.796Z,51.70
2018-11-04T09:28:43.129Z,57.47
2018-11-04T09:31:10.943Z,51.90
2018-11-04T09:33:40.853Z,52.10
2018-11-04T09:36:08.336Z,63.90
2018-11-04T09:38:37.180Z,55.83
2018-11-04T09:41:04.699Z,55.83
2018-11-04T09:43:32.566Z,60.93
2018-11-04T09:46:00.060Z,56.97
2018-11-04T09:48:27.433Z,54.97
2018-11-04T09:50:55.287Z,56.63
2018-11-04T09:53:22.756Z,54.77
2018-11-04T09:55:50.186Z,58.27
2018-11-04T09:58:17.636Z,65.03
2018-11-04T10:00:45.132Z,63.43
2018-11-04T10:03:12.614Z,64.27
2018-11-04T10:05:40.077Z,65.97
2018-11-04T10:08:07.609Z,63.57
2018-11-04T10:10:35.069Z,60.03
2018-11-04T10:13:02.556Z,67.60
2018-11-04T10:15:30.099Z,71.10
2018-11-04T10:17:58.129Z,73.63
2018-11-04T10:20:25.860Z,63.63
2018-11-04T10:22:53.134Z,58.77
2018-11-04T10:25:39.153Z,66.07
2018-11-04T10:28:06.625Z,64.17
2018-11-04T10:30:34.128Z,67.30
2018-11-04T10:33:01.633Z,73.47
2018-11-04T10:35:29.157Z,71.20
2018-11-04T10:37:56.495Z,67.50
2018-11-04T10:40:23.981Z,65.73
2018-11-04T10:42:51.385Z,64.47
2018-11-04T10:45:18.920Z,67.00
2018-11-04T10:47:46.408Z,66.93
2018-11-04T10:50:13.975Z,68.00
2018-11-04T10:52:41.500Z,71.03
2018-11-04T10:55:10.030Z,67.57
2018-11-04T10:57:37.635Z,63.87
2018-11-04T11:00:11.942Z,68.13
2018-11-04T11:02:39.453Z,72.70
2018-11-04T11:05:06.844Z,69.30
2018-11-04T11:07:34.290Z,70.83
2018-11-04T11:10:01.702Z,76.30
2018-11-04T11:12:29.153Z,78.07
2018-11-04T11:14:57.351Z,77.33
2018-11-04T11:17:25.733Z,70.83
2018-11-04T11:19:54.170Z,75.10
2018-11-04T11:22:21.937Z,83.73
2018-11-04T11:25:08.754Z,75.40
2018-11-04T11:27:36.620Z,71.97
2018-11-04T11:30:04.261Z,76.57
2018-11-04T11:32:31.855Z,77.63
2018-11-04T11:34:59.398Z,78.00
2018-11-04T11:37:26.931Z,78.03
2018-11-04T11:39:54.337Z,84.60
2018-11-04T11:42:21.905Z,70.83
2018-11-04T11:44:49.388Z,70.47
2018-11-04T11:47:16.797Z,71.63
2018-11-04T11:49:44.150Z,74.57
2018-11-04T11:52:11.684Z,69.77
2018-11-04T11:54:39.666Z,76.20
2018-11-04T11:57:07.043Z,72.10
2018-11-04T11:59:34.642Z,75.70
2018-11-04T12:02:02.258Z,78.43
2018-11-04T12:04:29.689Z,72.70
2018-11-04T12:06:57.192Z,66.90
2018-11-04T12:09:24.607Z,69.40
2018-11-04T12:11:53.506Z,64.03
2018-11-04T12:14:20.949Z,64.63
2018-11-04T12:16:48.354Z,65.87
2018-11-04T12:19:15.772Z,61.10
2018-11-04T12:21:43.272Z,66.83
2018-11-04T12:24:10.728Z,61.87
2018-11-04T12:26:39.028Z,67.63
2018-11-04T12:29:07.846Z,62.83
2018-11-04T12:31:35.563Z,61.07
2018-11-04T12:34:03.327Z,71.03
2018-11-04T12:36:30.995Z,67.27
2018-11-04T12:38:58.845Z,56.17
2018-11-04T12:41:26.468Z,62.10
2018-11-04T12:43:55.297Z,61.33
2018-11-04T12:46:23.567Z,62.67
2018-11-04T12:48:51.371Z,61.03
2018-11-04T12:51:19.040Z,61.97
2018-11-04T12:53:47.174Z,59.47
2018-11-04T12:56:17.540Z,59.30
2018-11-04T12:58:47.681Z,54.63
2018-11-04T13:01:17.221Z,58.77
2018-11-04T13:03:46.161Z,59.53
2018-11-04T13:06:14.629Z,58.97
2018-11-04T13:08:43.375Z,54.47
2018-11-04T13:11:11.824Z,56.53
2018-11-04T13:13:40.107Z,60.97
2018-11-04T13:16:12.616Z,54.60
2018-11-04T13:18:40.977Z,56.83
2018-11-04T13:21:09.103Z,51.00
2018-11-04T13:23:36.767Z,65.07
2018-11-04T13:26:04.879Z,55.67
2018-11-04T13:28:32.649Z,59.37
2018-11-04T13:31:01.125Z,57.13
2018-11-04T13:33:29.277Z,59.03
2018-11-04T13:35:57.335Z,59.27
2018-11-04T13:38:25.681Z,59.17
2018-11-04T13:40:53.859Z,52.90
2018-11-04T13:43:21.669Z,56.83
2018-11-04T13:45:49.564Z,57.13
2018-11-04T13:48:17.530Z,58.67
2018-11-04T13:50:45.283Z,56.33
2018-11-04T13:53:12.858Z,61.40
2018-11-04T13:55:40.382Z,57.30
2018-11-04T13:58:07.804Z,54.80
2018-11-04T14:00:35.233Z,59.67
2018-11-04T14:03:02.880Z,58.30
2018-11-04T14:05:30.341Z,62.53
2018-11-04T14:07:57.743Z,59.63
2018-11-04T14:10:25.251Z,59.47
2018-11-04T14:12:52.890Z,62.47
2018-11-04T14:15:20.314Z,68.63
2018-11-04T14:17:47.784Z,66.43
2018-11-04T14:20:15.221Z,61.30
2018-11-04T14:22:42.701Z,70.63
2018-11-04T14:25:11.217Z,63.97
2018-11-04T14:27:39.038Z,115.60
2018-11-04T14:30:09.358Z,73.80
2018-11-04T14:32:37.065Z,79.70
2018-11-04T14:35:05.933Z,76.30
2018-11-04T14:37:33.470Z,69.90
2018-11-04T14:40:01.012Z,71.17
2018-11-04T14:42:28.553Z,72.33
2018-11-04T14:44:56.128Z,73.47
2018-11-04T14:47:23.682Z,74.67
2018-11-04T14:49:51.047Z,72.90
2018-11-04T14:52:18.564Z,66.97
2018-11-04T14:54:46.235Z,73.40
2018-11-04T14:57:13.977Z,70.00
2018-11-04T14:59:42.121Z,78.00
2018-11-04T15:02:09.591Z,67.07
2018-11-04T15:04:37.447Z,62.43
2018-11-04T15:07:05.419Z,61.07
2018-11-04T15:09:32.927Z,75.07
2018-11-04T15:12:00.394Z,65.40
2018-11-04T15:14:27.873Z,72.67
2018-11-04T15:16:55.335Z,70.40
2018-11-04T15:19:23.801Z,67.73
2018-11-04T15:21:52.730Z,65.33
2018-11-04T15:24:20.219Z,64.77
2018-11-04T15:26:48.006Z,73.67
2018-11-04T15:29:15.612Z,65.57
2018-11-04T15:31:43.175Z,68.77
2018-11-04T15:34:10.705Z,61.90
2018-11-04T15:36:38.304Z,58.23
2018-11-04T15:39:07.932Z,72.87
2018-11-04T15:41:35.480Z,76.47
2018-11-04T15:44:03.005Z,71.30
2018-11-04T15:46:30.309Z,61.57
2018-11-04T15:48:57.802Z,76.37
2018-11-04T15:51:25.068Z,65.70
2018-11-04T15:53:52.392Z,67.70
2018-11-04T15:56:19.739Z,69.03
2018-11-04T15:58:47.068Z,70.40
2018-11-04T16:01:14.342Z,80.67
2018-11-04T16:03:41.613Z,73.33
2018-11-04T16:06:08.930Z,69.53
2018-11-04T16:08:36.174Z,77.30
2018-11-04T16:11:03.512Z,72.50
2018-11-04T16:13:30.875Z,72.40
2018-11-04T16:15:58.219Z,67.97
2018-11-04T16:18:25.494Z,70.97
2018-11-04T16:20:52.773Z,74.27
2018-11-04T16:23:20.030Z,70.13
2018-11-04T16:25:47.354Z,69.17
2018-11-04T16:28:14.680Z,74.23
2018-11-04T16:30:41.996Z,74.27
2018-11-04T16:33:09.343Z,65.87
2018-11-04T16:35:36.658Z,71.47
2018-11-04T16:38:04.039Z,77.50
2018-11-04T16:40:31.355Z,66.27
2018-11-04T16:42:58.750Z,71.23
2018-11-04T16:45:26.014Z,78.13
2018-11-04T16:47:53.267Z,81.90
2018-11-04T16:50:20.607Z,76.17
2018-11-04T16:52:47.845Z,72.20
2018-11-04T16:55:15.155Z,72.93
2018-11-04T16:57:42.948Z,72.73
2018-11-04T17:00:10.995Z,77.73
2018-11-04T17:02:38.598Z,65.90
2018-11-04T17:10:51.300Z,68.13
2018-11-04T17:13:18.675Z,65.67
2018-11-04T17:15:46.754Z,62.70
2018-11-04T17:18:14.014Z,63.37
2018-11-04T17:20:41.427Z,63.30
2018-11-04T17:23:08.740Z,64.70
2018-11-04T17:25:36.039Z,57.80
2018-11-04T17:28:04.204Z,60.57
2018-11-04T17:30:31.563Z,63.90
2018-11-04T17:32:59.771Z,58.40
2018-11-04T17:35:27.170Z,60.70
2018-11-04T17:37:55.756Z,63.53
2018-11-04T17:40:23.380Z,64.20
2018-11-04T17:42:50.767Z,74.17
2018-11-04T17:45:18.180Z,67.33
2018-11-04T17:47:46.280Z,63.40
2018-11-04T17:50:16.054Z,67.27
2018-11-04T17:52:43.904Z,70.07
2018-11-04T17:55:11.307Z,69.40
2018-11-04T17:57:39.165Z,65.60
2018-11-04T18:00:07.863Z,65.50
2018-11-04T18:02:35.117Z,65.70
2018-11-04T18:05:02.467Z,58.80
2018-11-04T18:07:29.928Z,62.43
2018-11-04T18:09:57.300Z,63.70
2018-11-04T18:12:24.848Z,64.70
2018-11-04T18:14:52.271Z,65.00
2018-11-04T18:17:19.826Z,63.00
2018-11-04T18:19:47.300Z,62.20
2018-11-04T18:22:14.751Z,63.17
2018-11-04T18:24:46.680Z,71.47
2018-11-04T18:27:27.115Z,59.93
2018-11-04T18:29:54.503Z,62.47
2018-11-04T18:32:23.183Z,61.30
2018-11-04T18:34:50.649Z,60.93
2018-11-04T18:37:17.960Z,62.30
2018-11-04T18:39:45.272Z,57.27
2018-11-04T18:42:13.391Z,37.43
2018-11-04T18:44:40.970Z,45.50
2018-11-04T18:47:08.243Z,46.73
2018-11-04T18:49:35.526Z,42.50
2018-11-04T18:52:03.241Z,34.10
2018-11-04T18:54:30.580Z,25.40
2018-11-04T18:56:58.019Z,24.50
2018-11-04T18:59:25.364Z,24.13
2018-11-04T19:01:53.943Z,23.60
2018-11-04T19:04:21.863Z,24.63
2018-11-04T19:06:49.425Z,24.97
2018-11-04T19:09:17.359Z,25.80
2018-11-04T19:11:44.818Z,30.33
2018-11-04T19:14:12.221Z,26.53
2018-11-04T19:16:51.942Z,27.50
2018-11-04T19:19:19.586Z,30.47
2018-11-04T19:21:48.746Z,29.07
2018-11-04T19:24:16.502Z,31.63
2018-11-04T19:26:44.206Z,32.67
2018-11-04T19:29:13.628Z,31.13
2018-11-04T19:31:42.162Z,31.83
2018-11-04T19:34:10.961Z,33.80
2018-11-04T19:36:38.846Z,34.93
2018-11-04T19:39:08.517Z,32.13
2018-11-04T19:41:36.426Z,35.77
2018-11-04T19:44:09.374Z,36.13
2018-11-04T19:46:38.809Z,33.97
2018-11-04T19:49:10.992Z,39.80
2018-11-04T19:51:45.318Z,34.20
2018-11-04T19:54:14.258Z,34.37
2018-11-04T19:56:43.132Z,36.43
2018-11-04T19:59:12.112Z,37.60
2018-11-04T20:01:41.237Z,38.27
2018-11-04T20:04:10.807Z,33.63
2018-11-04T20:06:39.104Z,36.00
2018-11-04T20:09:14.232Z,39.50
2018-11-04T20:11:46.013Z,40.13
2018-11-04T20:14:22.880Z,35.77
2018-11-04T20:16:51.835Z,38.43
2018-11-04T20:19:26.159Z,38.60
2018-11-04T20:21:55.316Z,35.00
2018-11-04T20:24:29.495Z,36.60
2018-11-04T20:26:57.655Z,38.20
2018-11-04T20:29:28.176Z,31.33
2018-11-04T20:32:02.364Z,34.93
2018-11-04T20:34:33.632Z,37.80
2018-11-04T20:37:01.820Z,37.83
2018-11-04T20:39:34.865Z,38.77
2018-11-04T20:42:03.471Z,38.47
2018-11-04T20:44:33.948Z,37.87
2018-11-04T20:47:03.286Z,38.20
2018-11-04T20:49:36.843Z,41.00
2018-11-04T20:52:06.570Z,37.97
2018-11-04T20:54:35.710Z,35.80
2018-11-04T20:57:09.903Z,36.50
2018-11-04T20:59:40.612Z,32.63
2018-11-04T21:02:08.530Z,34.90
2018-11-04T21:04:36.302Z,32.57
2018-11-04T21:07:03.934Z,34.47
2018-11-04T21:09:31.690Z,34.07
2018-11-04T21:11:59.708Z,36.80
2018-11-04T21:14:27.241Z,32.77
2018-11-04T21:16:55.015Z,36.23
2018-11-04T21:19:22.601Z,34.30
2018-11-04T21:21:50.143Z,27.73
2018-11-04T21:24:17.438Z,25.17
2018-11-04T21:26:45.070Z,23.23
2018-11-04T21:29:12.519Z,21.23
2018-11-04T21:31:39.673Z,20.33
2018-11-04T21:34:07.016Z,20.63
2018-11-04T21:36:34.407Z,23.47
2018-11-04T21:39:01.867Z,20.80
2018-11-04T21:41:29.326Z,20.13
2018-11-04T21:43:56.854Z,21.80
2018-11-04T21:46:24.020Z,22.03
2018-11-04T21:48:51.915Z,20.03
2018-11-04T21:51:19.255Z,19.17
2018-11-04T21:53:46.599Z,21.93
2018-11-04T21:56:14.031Z,19.90
2018-11-04T21:58:41.300Z,21.37
2018-11-04T22:01:08.641Z,21.80
2018-11-04T22:03:35.962Z,21.77
2018-11-04T22:06:03.426Z,22.43
2018-11-04T22:08:31.328Z,20.00
2018-11-04T22:10:59.151Z,20.10
2018-11-04T22:13:26.443Z,22.20
2018-11-04T22:15:53.709Z,25.13
2018-11-04T22:18:20.979Z,23.97
2018-11-04T22:20:48.261Z,20.73
2018-11-04T22:23:15.495Z,18.53
2018-11-04T22:25:42.760Z,22.03
2018-11-04T22:28:10.395Z,20.37
2018-11-04T22:30:37.735Z,23.37
2018-11-04T22:33:05.006Z,21.03
2018-11-04T22:35:32.264Z,21.43
2018-11-04T22:37:59.505Z,21.33
2018-11-04T22:40:26.809Z,19.53
2018-11-04T22:42:54.101Z,22.40
2018-11-04T22:45:21.372Z,20.63
2018-11-04T22:47:48.651Z,21.20
2018-11-04T22:50:16.064Z,23.53
2018-11-04T22:52:43.808Z,22.70
2018-11-04T22:55:11.981Z,21.53
2018-11-04T22:57:39.248Z,20.33
2018-11-04T23:00:13.040Z,19.13
2018-11-04T23:02:40.296Z,20.20
2018-11-04T23:05:13.349Z,23.10
2018-11-04T23:07:40.623Z,23.07
2018-11-04T23:10:08.029Z,22.00
2018-11-04T23:12:35.259Z,22.07
2018-11-04T23:15:02.538Z,20.07
2018-11-04T23:17:29.808Z,24.00
2018-11-04T23:19:57.144Z,20.20
2018-11-04T23:22:24.396Z,19.23
2018-11-04T23:24:51.747Z,24.00
2018-11-04T23:27:19.066Z,19.57
2018-11-04T23:29:46.373Z,21.07
2018-11-04T23:32:13.678Z,18.60
2018-11-04T23:34:40.997Z,22.43
2018-11-04T23:37:09.057Z,22.50
2018-11-04T23:39:36.355Z,21.67
2018-11-04T23:42:03.822Z,21.77
2018-11-04T23:44:31.133Z,21.73
2018-11-04T23:46:58.399Z,23.10
2018-11-04T23:49:25.716Z,21.93
2018-11-04T23:51:53.018Z,20.00
2018-11-04T23:54:20.270Z,30.77
2018-11-04T23:56:47.583Z,20.43
2018-11-04T23:59:14.872Z,25.07
